.
WxDataArchive / Data Records for 2013-05-19
2013-05-18 May 2013 2013-05-20

Data Records for Sunday, 19 May 2013

Time	Temp	Chill	HIndex	Humid	Dewpt	 Wind 	HiWind	WindDir	Rain 	Barom 
-----	----	-----	------	-----	-----	------	------	-------	-----	----- 
00:00	63.5	63.5	63.5	62	50.2	0	0	---	0.00	29.993 
00:05	63.4	63.4	63.4	62	50.1	0	1	90	0.00	29.993 
00:10	63.2	63.2	63.2	62	50.0	0	0	---	0.00	29.993 
00:15	62.9	62.9	62.9	62	49.7	0	0	---	0.00	29.993 
00:20	62.6	62.6	62.6	62	49.4	0	0	---	0.00	29.993 
00:25	62.4	62.4	62.4	63	49.6	0	0	---	0.00	29.993 
00:30	62.1	62.1	62.1	64	49.8	0	0	---	0.00	29.992 
00:35	61.8	61.8	61.8	64	49.5	0	0	---	0.00	29.992 
00:40	61.3	61.3	61.3	64	49.0	0	0	---	0.00	29.992 
00:45	61.2	61.2	61.2	65	49.3	0	0	---	0.00	29.993 
00:50	61.0	61.0	61.0	66	49.6	0	0	---	0.00	29.993 
00:55	60.9	60.9	60.9	66	49.5	0	0	---	0.00	29.993 
01:00	60.7	60.7	60.7	65	48.9	0	0	---	0.00	29.992 
01:05	60.9	60.9	60.9	64	48.6	0	1	90	0.00	29.992 
01:10	61.0	61.0	61.0	62	47.9	0	2	90	0.00	29.992 
01:15	61.2	61.2	61.2	61	47.6	0	1	90	0.00	29.979 
01:20	61.5	61.5	61.5	60	47.5	0	2	90	0.00	29.979 
01:25	61.5	61.5	61.5	60	47.5	0	2	90	0.00	29.979 
01:30	61.5	61.5	61.5	60	47.5	0	2	90	0.00	29.974 
01:35	61.3	61.3	61.3	60	47.3	0	3	90	0.00	29.974 
01:40	61.2	61.2	61.2	61	47.6	0	1	90	0.00	29.974 
01:45	60.9	60.9	60.9	62	47.8	0	1	90	0.00	29.974 
01:50	60.7	60.7	60.7	62	47.6	0	0	---	0.00	29.974 
01:55	60.5	60.5	60.5	62	47.4	0	1	90	0.00	29.974 
02:00	60.4	60.4	60.4	62	47.3	0	1	90	0.00	29.965 
02:05	60.2	60.2	60.2	62	47.1	0	2	90	0.00	29.965 
02:10	60.2	60.2	60.2	62	47.1	0	2	90	0.00	29.965 
02:15	60.2	60.2	60.2	62	47.1	0	1	90	0.00	29.962 
02:20	60.2	60.2	60.2	62	47.1	0	0	---	0.00	29.962 
02:25	60.1	60.1	60.1	63	47.5	0	1	90	0.00	29.962 
02:30	59.9	59.9	59.9	63	47.3	0	3	90	0.00	29.961 
02:35	59.8	59.8	59.8	62	46.8	0	2	90	0.00	29.961 
02:40	59.8	59.8	59.8	62	46.8	0	2	90	0.00	29.961 
02:45	59.8	59.8	59.8	62	46.8	0	1	90	0.00	29.955 
02:50	59.6	59.6	59.6	62	46.6	0	0	---	0.00	29.955 
02:55	59.5	59.5	59.5	63	46.9	0	0	---	0.00	29.955 
03:00	59.2	59.2	59.2	64	47.0	0	0	---	0.00	29.957 
03:05	58.9	58.9	58.9	64	46.7	0	1	90	0.00	29.957 
03:10	58.7	58.7	58.7	64	46.6	0	2	90	0.00	29.957 
03:15	58.6	58.6	58.6	63	46.0	0	1	90	0.00	29.955 
03:20	58.6	58.6	58.6	63	46.0	0	1	90	0.00	29.955 
03:25	58.6	58.6	58.6	63	46.0	0	1	90	0.00	29.955 
03:30	58.4	58.4	58.4	63	45.9	0	2	68	0.00	29.960 
03:35	58.3	58.3	58.3	63	45.8	0	0	---	0.00	29.960 
03:40	58.1	58.1	58.1	64	46.0	0	0	---	0.00	29.960 
03:45	58.0	58.0	58.0	64	45.9	0	0	---	0.00	29.963 
03:50	57.8	57.8	57.8	65	46.1	0	0	---	0.00	29.963 
03:55	57.6	57.6	57.6	65	45.9	0	1	68	0.00	29.963 
04:00	57.6	57.6	57.6	65	45.9	0	1	68	0.00	29.965 
04:05	57.5	57.5	57.5	65	45.8	0	0	---	0.00	29.965 
04:10	57.5	57.5	57.5	65	45.8	0	1	68	0.00	29.965 
04:15	57.5	57.5	57.5	66	46.2	0	1	68	0.00	29.963 
04:20	57.3	57.3	57.3	66	46.0	0	1	68	0.00	29.963 
04:25	57.3	57.3	57.3	66	46.0	0	0	---	0.00	29.963 
04:30	57.2	57.2	57.2	66	45.9	0	0	---	0.00	29.966 
04:35	57.0	57.0	57.0	67	46.2	0	1	68	0.00	29.966 
04:40	57.0	57.0	57.0	67	46.2	0	0	---	0.00	29.966 
04:45	56.9	56.9	56.9	67	46.1	0	1	68	0.00	29.970 
04:50	56.9	56.9	56.9	67	46.1	0	0	---	0.00	29.970 
04:55	56.9	56.9	56.9	68	46.4	0	0	---	0.00	29.970 
05:00	56.9	56.9	56.9	68	46.4	0	1	68	0.00	29.972 
05:05	57.0	57.0	57.0	68	46.5	0	1	68	0.00	29.972 
05:10	57.0	57.0	57.0	69	46.9	0	2	68	0.00	29.972 
05:15	56.9	56.9	56.9	69	46.8	0	2	68	0.00	29.966 
05:20	56.7	56.7	56.7	69	46.6	0	2	68	0.00	29.966 
05:25	56.7	56.7	56.7	70	47.0	0	2	68	0.00	29.966 
05:30	56.6	56.6	56.6	71	47.3	0	4	68	0.00	29.961 
05:35	56.5	56.5	56.5	71	47.2	0	3	68	0.00	29.961 
05:40	56.3	56.3	56.3	72	47.4	1	3	68	0.00	29.961 
05:45	56.3	56.3	56.3	72	47.4	0	2	68	0.00	29.961 
05:50	56.2	56.2	56.2	72	47.3	0	1	68	0.00	29.961 
05:55	56.2	56.2	56.2	73	47.7	0	1	68	0.00	29.961 
06:00	56.0	56.0	56.0	73	47.5	0	2	68	0.00	29.964 
06:05	55.9	55.9	55.9	74	47.7	0	2	68	0.00	29.964 
06:10	55.7	55.7	55.7	74	47.5	0	2	68	0.00	29.964 
06:15	55.7	55.7	55.7	74	47.5	0	1	68	0.00	29.964 
06:20	55.6	55.6	55.6	74	47.4	0	1	68	0.00	29.964 
06:25	55.6	55.6	55.6	75	47.8	0	1	68	0.00	29.964 
06:30	55.4	55.4	55.4	75	47.6	0	0	---	0.00	29.967 
06:35	55.3	55.3	55.3	75	47.5	0	0	---	0.00	29.967 
06:40	55.3	55.3	55.3	75	47.5	0	0	---	0.00	29.967 
06:45	55.3	55.3	55.3	76	47.9	0	0	---	0.00	29.968 
06:50	55.3	55.3	55.3	77	48.2	0	0	---	0.00	29.968 
06:55	55.3	55.3	55.3	77	48.2	0	1	68	0.00	29.968 
07:00	55.4	55.4	55.4	77	48.3	0	3	68	0.00	29.965 
07:05	55.6	55.6	55.6	77	48.5	0	0	---	0.00	29.965 
07:10	55.7	55.7	55.7	77	48.6	0	1	68	0.00	29.965 
07:15	55.9	55.9	55.9	76	48.4	0	3	68	0.00	29.976 
07:20	56.3	56.3	56.3	75	48.5	0	1	68	0.00	29.976 
07:25	56.7	56.7	56.7	75	48.9	0	1	68	0.00	29.976 
07:30	57.2	57.2	57.2	73	48.6	0	3	68	0.00	29.977 
07:35	57.6	57.6	57.6	73	49.0	1	3	68	0.00	29.977 
07:40	58.1	58.1	58.1	72	49.1	0	2	68	0.00	29.977 
07:45	58.6	58.6	58.6	71	49.2	0	2	68	0.00	29.977 
07:50	59.0	59.0	59.0	70	49.2	1	3	68	0.00	29.977 
07:55	59.3	59.3	59.3	70	49.5	1	3	68	0.00	29.977 
08:00	59.6	59.6	59.6	69	49.4	1	4	68	0.00	29.966 
08:05	59.9	59.9	59.9	68	49.3	1	5	68	0.00	29.966 
08:10	60.2	60.2	60.2	68	49.6	1	4	68	0.00	29.966 
08:15	60.7	60.7	60.7	67	49.7	1	2	68	0.00	29.971 
08:20	61.2	61.2	61.2	67	50.2	2	5	68	0.00	29.971 
08:25	61.5	61.5	61.5	67	50.4	2	4	68	0.00	29.971 
08:30	61.8	61.8	61.8	65	49.9	1	4	68	0.00	29.967 
08:35	62.1	62.1	62.1	66	50.6	1	3	68	0.00	29.967 
08:40	62.6	62.6	62.6	65	50.7	1	3	68	0.00	29.967 
08:45	63.4	63.4	63.4	64	51.0	0	0	---	0.00	29.976 
08:50	64.7	64.7	64.7	62	51.4	0	0	---	0.00	29.976 
08:55	65.6	65.6	65.6	59	50.9	0	2	68	0.00	29.976 
09:00	66.4	66.4	66.4	59	51.6	0	1	68	0.00	29.976 
09:05	66.6	66.6	66.6	58	51.4	0	1	68	0.00	29.976 
09:10	66.4	66.4	66.4	60	52.1	0	1	68	0.00	29.976 
09:15	66.3	66.3	66.3	61	52.4	0	1	68	0.00	29.985 
09:20	66.8	66.8	66.8	61	52.9	0	1	68	0.00	29.985 
09:25	67.1	67.1	67.1	60	52.7	0	0	---	0.00	29.985 
09:30	67.4	67.4	67.4	60	53.0	0	3	68	0.00	29.985 
09:35	68.1	68.1	68.1	59	53.2	0	3	68	0.00	29.985 
09:40	68.4	68.4	68.4	60	54.0	0	1	68	0.00	29.985 
09:45	69.3	69.3	69.3	62	55.7	0	1	68	0.00	29.989 
09:50	70.3	70.3	70.3	58	54.8	0	1	68	0.00	29.989 
09:55	70.9	70.9	70.9	59	55.8	1	3	68	0.00	29.989 
10:00	70.9	70.9	70.9	59	55.8	0	2	68	0.00	29.975 
10:05	71.1	71.1	71.1	60	56.5	1	2	68	0.00	29.975 
10:10	71.3	71.3	71.3	59	56.2	1	2	68	0.00	29.975 
10:15	71.6	71.6	71.6	59	56.5	0	2	68	0.00	29.985 
10:20	72.1	72.1	72.1	62	58.3	0	0	---	0.00	29.985 
10:25	72.8	72.8	72.8	61	58.6	0	3	68	0.00	29.985 
10:30	73.7	73.7	73.7	58	58.0	1	3	68	0.00	29.971 
10:35	74.2	74.2	74.2	57	58.0	0	3	68	0.00	29.971 
10:40	74.9	74.9	74.9	59	59.6	0	1	68	0.00	29.971 
10:45	75.3	75.3	77.6	58	59.5	1	3	68	0.00	29.964 
10:50	75.6	75.6	77.8	59	60.2	0	4	90	0.00	29.964 
10:55	76.3	76.3	78.2	58	60.4	1	2	248	0.00	29.964 
11:00	76.8	76.8	78.6	59	61.4	1	3	248	0.00	29.952 
11:05	77.0	77.0	78.7	57	60.6	1	3	248	0.00	29.952 
11:10	77.6	77.6	79.2	58	61.6	0	2	248	0.00	29.952 
11:15	77.9	77.9	79.5	58	61.9	1	4	90	0.00	29.953 
11:20	78.1	78.1	79.6	56	61.1	1	3	90	0.00	29.953 
11:25	78.1	78.1	79.7	58	62.1	1	3	112	0.00	29.953 
11:30	78.5	78.5	79.9	56	61.5	0	2	112	0.00	29.953 
11:35	78.6	78.6	80.0	55	61.1	1	3	112	0.00	29.953 
11:40	79.2	79.2	80.7	57	62.6	1	2	112	0.00	29.953 
11:45	79.8	79.8	81.1	55	62.2	0	2	112	0.00	29.951 
11:50	80.3	80.3	81.5	54	62.1	0	1	112	0.00	29.951 
11:55	80.5	80.5	81.6	53	61.8	1	2	112	0.00	29.951 
12:00	80.7	80.7	81.8	53	62.0	1	4	112	0.00	29.949 
12:05	80.9	80.9	82.1	54	62.7	1	3	112	0.00	29.949 
12:10	81.1	81.1	82.2	53	62.3	1	5	112	0.00	29.949 
12:15	81.2	81.2	82.5	54	62.9	1	3	112	0.00	29.953 
12:20	81.4	81.4	82.7	54	63.1	0	2	112	0.00	29.953 
12:25	81.6	81.6	82.6	52	62.2	0	2	112	0.00	29.953 
12:30	81.8	81.8	82.7	51	61.9	1	3	112	0.00	29.954 
12:35	81.6	81.6	82.6	52	62.2	0	1	112	0.00	29.954 
12:40	81.1	81.1	82.2	53	62.3	0	1	112	0.00	29.954 
12:45	80.9	80.9	81.8	51	61.0	1	2	90	0.00	29.953 
12:50	80.7	80.7	81.4	50	60.3	0	1	112	0.00	29.953 
12:55	80.7	80.7	81.7	52	61.4	0	1	112	0.00	29.953 
13:00	80.9	80.9	81.9	52	61.6	0	1	112	0.00	29.951 
13:05	81.1	81.1	82.1	52	61.8	1	3	112	0.00	29.951 
13:10	81.6	81.6	82.5	51	61.7	1	3	112	0.00	29.951 
13:15	82.2	82.2	83.1	51	62.2	0	2	112	0.00	29.941 
13:20	82.8	82.8	83.5	49	61.7	1	2	248	0.00	29.941 
13:25	83.4	83.4	84.0	48	61.6	1	3	112	0.00	29.941 
13:30	83.4	83.4	83.7	46	60.4	1	4	68	0.00	29.937 
13:35	83.4	83.4	84.2	49	62.2	0	3	68	0.00	29.937 
13:40	83.0	83.0	83.5	48	61.3	1	2	270	0.00	29.937 
13:45	82.4	82.4	83.0	49	61.3	1	3	270	0.00	29.935 
13:50	82.2	82.2	82.8	49	61.1	1	3	270	0.00	29.935 
13:55	82.2	82.2	82.7	48	60.5	0	2	270	0.00	29.935 
14:00	83.0	83.0	83.7	49	61.8	0	2	270	0.00	29.922 
14:05	83.4	83.4	83.7	46	60.4	0	2	270	0.00	29.922 
14:10	83.6	83.6	83.9	46	60.6	1	5	112	0.00	29.922 
14:15	83.4	83.4	83.7	46	60.4	0	2	112	0.00	29.913 
14:20	82.8	82.8	83.0	46	59.9	1	3	112	0.00	29.913 
14:25	82.4	82.4	82.7	47	60.1	1	2	112	0.00	29.913 
14:30	82.4	82.4	83.0	49	61.3	1	3	112	0.00	29.909 
14:35	83.2	83.2	84.1	50	62.6	0	3	22	0.00	29.909 
14:40	83.8	83.8	83.9	45	60.2	0	2	45	0.00	29.909 
14:45	84.3	84.3	84.7	46	61.2	1	2	45	0.00	29.904 
14:50	84.7	84.7	84.6	43	59.7	1	4	45	0.00	29.904 
14:55	85.3	85.3	85.2	43	60.2	1	3	45	0.00	29.904 
15:00	85.7	85.7	86.0	44	61.2	0	3	45	0.00	29.900 
15:05	85.1	85.1	85.0	43	60.1	1	2	45	0.00	29.900 
15:10	84.0	84.0	84.1	45	60.3	1	2	0	0.00	29.900 
15:15	84.0	84.0	85.1	50	63.3	0	1	0	0.00	29.891 
15:20	84.3	84.3	84.5	45	60.6	1	3	112	0.00	29.891 
15:25	84.7	84.7	84.7	44	60.3	1	6	112	0.00	29.891 
15:30	85.1	85.1	84.8	42	59.4	1	3	112	0.00	29.876 
15:35	85.5	85.5	85.5	43	60.4	0	2	112	0.00	29.876 
15:40	85.9	85.9	85.3	40	58.7	1	3	112	0.00	29.876 
15:45	86.3	86.3	85.8	40	59.1	1	3	112	0.00	29.868 
15:50	86.3	86.3	85.8	40	59.1	2	4	112	0.00	29.868 
15:55	85.9	85.9	85.7	42	60.1	1	4	112	0.00	29.868 
16:00	86.1	86.1	85.8	41	59.6	1	3	112	0.00	29.858 
16:05	86.5	86.5	86.0	40	59.3	0	2	112	0.00	29.858 
16:10	86.7	86.7	86.5	41	60.1	2	6	112	0.00	29.858 
16:15	86.3	86.3	86.5	43	61.1	2	6	112	0.00	29.848 
16:20	86.1	86.1	85.6	40	58.9	1	4	112	0.00	29.848 
16:25	86.3	86.3	86.2	42	60.5	1	5	90	0.00	29.848 
16:30	86.5	86.5	86.3	41	60.0	1	3	90	0.00	29.846 
16:35	86.5	86.5	86.0	40	59.3	2	6	90	0.00	29.846 
16:40	85.9	85.9	85.7	42	60.1	2	5	68	0.00	29.846 
16:45	85.7	85.7	85.1	40	58.6	1	4	112	0.00	29.857 
16:50	85.5	85.5	85.3	42	59.8	0	2	135	0.00	29.857 
16:55	85.7	85.7	85.5	42	59.9	0	2	135	0.00	29.857 
17:00	86.3	86.3	85.8	40	59.1	1	4	135	0.00	29.849 
17:05	86.5	86.5	86.3	41	60.0	0	3	292	0.00	29.849 
17:10	86.7	86.7	85.8	38	58.0	0	2	90	0.00	29.849 
17:15	87.0	87.0	87.1	42	61.1	0	3	90	0.00	29.860 
17:20	87.0	87.0	86.4	39	59.0	0	2	90	0.00	29.860 
17:25	86.5	86.5	85.8	39	58.6	1	2	90	0.00	29.860 
17:30	85.9	85.9	85.5	41	59.4	1	2	112	0.00	29.861 
17:35	85.9	85.9	85.1	39	58.0	0	2	112	0.00	29.861 
17:40	85.9	85.9	85.5	41	59.4	0	1	112	0.00	29.861 
17:45	85.5	85.5	84.9	40	58.4	0	2	135	0.00	29.863 
17:50	85.3	85.3	84.8	41	58.9	0	2	135	0.00	29.863 
17:55	85.1	85.1	84.4	40	58.0	1	2	135	0.00	29.863 
18:00	84.7	84.7	84.4	42	59.0	0	2	135	0.00	29.861 
18:05	84.5	84.5	84.0	41	58.2	1	4	112	0.00	29.861 
18:10	84.7	84.7	84.2	41	58.4	1	3	112	0.00	29.861 
18:15	84.7	84.7	84.4	42	59.0	0	2	112	0.00	29.849 
18:20	84.9	84.9	84.6	42	59.2	1	4	135	0.00	29.849 
18:25	85.1	85.1	84.6	41	58.7	1	2	135	0.00	29.849 
18:30	85.1	85.1	84.4	40	58.0	1	2	135	0.00	29.860 
18:35	85.1	85.1	84.6	41	58.7	0	1	135	0.00	29.860 
18:40	84.9	84.9	84.4	41	58.5	0	2	135	0.00	29.860 
18:45	84.9	84.9	84.6	42	59.2	0	2	135	0.00	29.859 
18:50	84.9	84.9	84.2	40	57.8	1	3	270	0.00	29.859 
18:55	84.9	84.9	84.6	42	59.2	0	1	270	0.00	29.859 
19:00	84.9	84.9	84.6	42	59.2	1	2	292	0.00	29.846 
19:05	84.7	84.7	84.4	42	59.0	1	5	68	0.00	29.846 
19:10	84.5	84.5	84.5	44	60.2	0	2	90	0.00	29.846 
19:15	84.5	84.5	84.1	42	58.9	1	3	90	0.00	29.835 
19:20	84.3	84.3	83.9	42	58.7	1	3	158	0.00	29.835 
19:25	84.1	84.1	83.9	43	59.2	0	1	135	0.00	29.835 
19:30	84.0	84.0	84.0	44	59.7	0	2	135	0.00	29.841 
19:35	83.8	83.8	83.7	44	59.5	1	3	135	0.00	29.841 
19:40	83.6	83.6	83.5	44	59.3	1	3	135	0.00	29.841 
19:45	83.6	83.6	83.7	45	60.0	0	2	135	0.00	29.841 
19:50	83.4	83.4	83.5	45	59.8	0	1	135	0.00	29.841 
19:55	83.0	83.0	83.2	46	60.1	0	2	135	0.00	29.841 
20:00	82.6	82.6	82.8	46	59.7	0	1	135	0.00	29.846 
20:05	82.4	82.4	82.6	46	59.5	0	1	135	0.00	29.846 
20:10	82.2	82.2	82.4	46	59.3	0	2	135	0.00	29.846 
20:15	82.0	82.0	82.2	46	59.1	1	2	135	0.00	29.835 
20:20	82.0	82.0	82.2	46	59.1	1	3	112	0.00	29.835 
20:25	81.8	81.8	82.3	48	60.2	0	1	112	0.00	29.835 
20:30	81.4	81.4	81.9	48	59.8	0	2	112	0.00	29.839 
20:35	81.1	81.1	81.7	49	60.1	0	1	112	0.00	29.839 
20:40	80.9	80.9	81.5	49	59.9	0	1	112	0.00	29.839 
20:45	80.5	80.5	81.3	50	60.1	0	2	112	0.00	29.839 
20:50	80.3	80.3	81.1	50	59.9	0	1	112	0.00	29.839 
20:55	79.9	79.9	80.8	51	60.1	0	1	112	0.00	29.839 
21:00	79.8	79.8	80.8	52	60.6	0	1	112	0.00	29.836 
21:05	79.4	79.4	80.5	52	60.2	0	1	112	0.00	29.836 
21:10	78.8	78.8	80.0	53	60.2	0	2	112	0.00	29.836 
21:15	78.6	78.6	79.8	53	60.0	0	1	112	0.00	29.833 
21:20	78.3	78.3	79.7	54	60.3	0	1	112	0.00	29.833 
21:25	77.9	77.9	79.3	54	59.9	0	1	112	0.00	29.833 
21:30	77.7	77.7	79.2	55	60.2	0	1	112	0.00	29.838 
21:35	77.4	77.4	79.0	55	59.9	0	1	112	0.00	29.838 
21:40	77.2	77.2	78.9	56	60.3	0	0	---	0.00	29.838 
21:45	76.8	76.8	78.6	57	60.4	0	1	112	0.00	29.852 
21:50	76.5	76.5	78.4	57	60.1	0	0	---	0.00	29.852 
21:55	76.1	76.1	78.1	58	60.2	0	1	112	0.00	29.852 
22:00	76.0	76.0	78.0	58	60.1	0	0	---	0.00	29.861 
22:05	75.8	75.8	77.9	59	60.4	0	0	---	0.00	29.861 
22:10	75.4	75.4	77.6	59	60.1	0	0	---	0.00	29.861 
22:15	75.3	75.3	77.5	60	60.4	0	1	112	0.00	29.860 
22:20	75.3	75.3	77.5	60	60.4	0	1	112	0.00	29.860 
22:25	75.3	75.3	77.5	60	60.4	0	0	---	0.00	29.860 
22:30	75.1	75.1	77.4	60	60.2	0	0	---	0.00	29.863 
22:35	74.9	74.9	74.9	61	60.5	0	1	112	0.00	29.863 
22:40	74.7	74.7	74.7	62	60.8	0	1	112	0.00	29.863 
22:45	74.7	74.7	74.7	62	60.8	0	1	112	0.00	29.864 
22:50	74.6	74.6	74.6	62	60.7	0	1	112	0.00	29.864 
22:55	74.6	74.6	74.6	62	60.7	0	1	112	0.00	29.864 
23:00	74.6	74.6	74.6	62	60.7	0	0	---	0.00	29.866 
23:05	74.6	74.6	74.6	62	60.7	0	0	---	0.00	29.866 
23:10	74.4	74.4	74.4	63	61.0	0	0	---	0.00	29.866 
23:15	74.0	74.0	74.0	63	60.6	0	1	112	0.00	29.867 
23:20	73.9	73.9	73.9	64	60.9	0	0	---	0.00	29.867 
23:25	73.9	73.9	73.9	64	60.9	0	1	112	0.00	29.867 
23:30	73.7	73.7	73.7	64	60.7	0	2	112	0.00	29.870 
23:35	73.7	73.7	73.7	64	60.7	0	1	112	0.00	29.870 
23:40	73.7	73.7	73.7	65	61.2	0	1	112	0.00	29.870 
23:45	73.5	73.5	73.5	65	61.0	0	1	112	0.00	29.866 
23:50	73.3	73.3	73.3	65	60.8	0	1	112	0.00	29.866 
23:55	73.3	73.3	73.3	65	60.8	0	1	112	0.00	29.866 

CoCoRaHS
IN-AL-39
A2 Web Hosting
Creative Commons License
GoDaddy
search engine by freefind advanced

loaded 2018-11-22 05:22:33 • last modified 2010-11-18 10:43:29
Privacy PolicyDisclaimer
• wx.awcolley.com is powered by PmWiki v.2002016 •
• all content (unless otherwise noted) © 2018 A W Colley